createdAt,value
2023-08-27T04:27:32.484Z,99269.56
2023-08-27T04:31:35.638Z,99280.94
2023-08-27T04:35:38.184Z,99276.72
2023-08-27T04:39:41.332Z,99281.56
2023-08-27T04:43:45.188Z,99278.06
2023-08-27T04:47:48.610Z,99296.28
2023-08-27T04:51:51.279Z,99290.78
2023-08-27T04:55:54.335Z,99298.28
2023-08-27T04:59:58.873Z,99291.28
2023-08-27T05:04:03.010Z,99286.91
2023-08-27T05:08:06.205Z,99293.22
2023-08-27T05:12:09.133Z,99291.84
2023-08-27T05:16:13.454Z,99306.44
2023-08-27T05:20:16.952Z,99300.78
2023-08-27T05:24:19.582Z,99307.91
2023-08-27T05:28:22.592Z,99324.78
2023-08-27T05:32:26.676Z,99322.50
2023-08-27T05:36:29.705Z,99337.47
2023-08-27T05:40:32.707Z,99328.31
2023-08-27T05:44:35.672Z,99336.59
2023-08-27T05:48:39.961Z,99330.38
2023-08-27T05:52:43.016Z,99325.50
2023-08-27T05:56:45.477Z,99317.53
2023-08-27T06:00:48.413Z,99305.38
2023-08-27T06:04:52.756Z,99281.19
2023-08-27T06:08:55.687Z,99283.88
2023-08-27T06:12:59.288Z,99281.75
2023-08-27T06:17:02.678Z,99288.72
2023-08-27T06:21:07.358Z,99287.16
2023-08-27T06:25:10.462Z,99286.84
2023-08-27T06:29:13.056Z,99300.72
2023-08-27T06:33:16.007Z,99310.84
2023-08-27T06:37:20.091Z,99276.47
2023-08-27T06:41:23.438Z,99271.06
2023-08-27T06:45:30.232Z,99282.00
2023-08-27T06:49:33.256Z,99285.75
2023-08-27T06:53:37.657Z,99289.22
2023-08-27T06:57:40.836Z,99292.50
2023-08-27T07:01:43.856Z,99305.84
2023-08-27T07:05:46.540Z,99287.66
2023-08-27T07:09:50.865Z,99285.16
2023-08-27T07:13:53.623Z,99285.63
2023-08-27T07:17:56.535Z,99284.97
2023-08-27T07:21:59.668Z,99292.91
2023-08-27T07:26:05.368Z,99294.16
2023-08-27T07:30:10.526Z,99299.31
2023-08-27T07:34:13.680Z,99300.91
2023-08-27T07:38:17.300Z,99300.50
2023-08-27T07:42:23.015Z,99291.38
2023-08-27T07:46:26.059Z,99298.56
2023-08-27T07:50:29.489Z,99316.94
2023-08-27T07:54:32.696Z,99327.59
2023-08-27T07:58:37.269Z,99307.56
2023-08-27T08:02:42.781Z,99302.19
2023-08-27T08:06:45.749Z,99291.47
2023-08-27T08:10:48.716Z,99277.06
2023-08-27T08:14:54.116Z,99292.03
2023-08-27T08:18:57.091Z,99290.38
2023-08-27T08:23:00.262Z,99285.41
2023-08-27T08:27:04.178Z,99269.31
2023-08-27T08:31:09.076Z,99276.03
2023-08-27T08:35:11.993Z,99269.00
2023-08-27T08:39:14.963Z,99276.53
2023-08-27T08:43:24.686Z,99269.44
2023-08-27T08:47:30.801Z,99260.47
2023-08-27T08:51:35.732Z,99255.09
2023-08-27T08:55:39.462Z,99254.28
2023-08-27T08:59:42.928Z,99243.31
2023-08-27T09:03:48.469Z,99225.22
2023-08-27T09:07:52.008Z,99229.56
2023-08-27T09:11:57.509Z,99227.22
2023-08-27T09:16:01.081Z,99255.56
2023-08-27T09:20:07.088Z,99252.78
2023-08-27T09:24:10.287Z,99244.78
2023-08-27T09:28:15.516Z,99234.22
2023-08-27T09:32:23.218Z,99227.16
2023-08-27T09:36:28.721Z,99212.38
2023-08-27T09:40:32.027Z,99204.38
2023-08-27T09:44:35.089Z,99200.59
2023-08-27T09:48:38.750Z,99197.84
2023-08-27T09:52:44.045Z,99183.50
2023-08-27T09:56:48.499Z,99175.97
2023-08-27T10:00:51.123Z,99168.06
2023-08-27T10:04:57.712Z,99172.72
2023-08-27T10:09:03.125Z,99193.25
2023-08-27T10:13:07.717Z,99172.59
2023-08-27T10:17:12.978Z,99174.19
2023-08-27T10:21:16.901Z,99167.88
2023-08-27T10:25:22.558Z,99167.50
2023-08-27T10:29:27.079Z,99154.81
2023-08-27T10:33:29.974Z,99159.66
2023-08-27T10:37:34.731Z,99148.00
2023-08-27T10:41:39.528Z,99140.31
2023-08-27T10:45:42.528Z,99139.91
2023-08-27T10:49:48.718Z,99135.88
2023-08-27T10:53:59.459Z,99146.84
2023-08-27T10:58:15.878Z,99157.38
2023-08-27T11:02:19.092Z,99158.56
2023-08-27T11:06:33.556Z,99162.50
2023-08-27T11:10:36.271Z,99154.41
2023-08-27T11:14:42.743Z,99153.28
2023-08-27T11:18:50.657Z,99135.53
2023-08-27T11:22:58.089Z,99128.44
2023-08-27T11:27:03.666Z,99135.50
2023-08-27T11:31:08.768Z,99126.47
2023-08-27T11:35:15.819Z,99101.91
2023-08-27T11:39:19.481Z,99101.91
2023-08-27T11:43:26.366Z,99096.03
2023-08-27T11:47:30.519Z,99120.72
2023-08-27T11:51:33.847Z,99106.53
2023-08-27T11:55:36.910Z,99107.69
2023-08-27T11:59:41.123Z,99124.44
2023-08-27T12:03:45.913Z,99119.44
2023-08-27T12:07:49.231Z,99118.53
2023-08-27T12:11:52.801Z,99112.28
2023-08-27T12:15:56.352Z,99107.88
2023-08-27T12:20:02.447Z,99095.84
2023-08-27T12:24:06.462Z,99086.16
2023-08-27T12:28:09.165Z,99071.03
2023-08-27T12:32:14.149Z,99060.31
2023-08-27T12:36:18.346Z,99058.56
2023-08-27T12:40:21.706Z,99072.25
2023-08-27T12:44:24.701Z,99067.59
2023-08-27T12:48:27.495Z,99060.28
2023-08-27T12:52:31.870Z,99060.28
2023-08-27T12:56:35.334Z,99054.13
2023-08-27T13:00:38.070Z,99054.00
2023-08-27T13:04:40.999Z,99049.53
2023-08-27T13:08:45.713Z,99049.53
2023-08-27T13:12:48.603Z,99053.53
2023-08-27T13:16:51.791Z,99052.38
2023-08-27T13:20:55.145Z,99063.31
2023-08-27T13:24:59.366Z,99060.38
2023-08-27T13:29:02.866Z,99062.06
2023-08-27T13:33:06.085Z,99065.84
2023-08-27T13:37:09.026Z,99068.66
2023-08-27T13:41:13.788Z,99051.56
2023-08-27T13:45:16.921Z,99044.63
2023-08-27T13:49:20.110Z,99033.69
2023-08-27T13:53:23.582Z,99024.50
2023-08-27T13:57:28.096Z,99011.72
2023-08-27T14:01:32.272Z,99016.09
2023-08-27T14:05:36.196Z,99034.13
2023-08-27T14:09:40.785Z,99022.31
2023-08-27T14:13:46.627Z,99017.09
2023-08-27T14:17:49.744Z,99027.22
2023-08-27T14:21:52.804Z,99021.81
2023-08-27T14:25:55.955Z,99019.78
2023-08-27T14:30:00.785Z,99020.06
2023-08-27T14:34:05.946Z,99020.63
2023-08-27T14:38:08.882Z,99017.34
2023-08-27T14:42:11.656Z,99025.00
2023-08-27T14:46:15.800Z,99023.38
2023-08-27T14:50:20.010Z,99030.34
2023-08-27T14:54:23.116Z,99023.91
2023-08-27T14:58:25.699Z,99018.00
2023-08-27T15:02:30.257Z,99007.31
2023-08-27T15:06:33.385Z,99001.97
2023-08-27T15:10:36.252Z,99001.38
2023-08-27T15:14:39.424Z,98995.69
2023-08-27T15:18:44.110Z,98986.84
2023-08-27T15:22:47.192Z,98978.75
2023-08-27T15:26:50.356Z,98982.06
2023-08-27T15:30:55.766Z,98979.88
2023-08-27T15:35:02.380Z,98985.69
2023-08-27T15:39:05.743Z,98986.00
2023-08-27T15:43:24.937Z,98988.34
2023-08-27T15:47:31.379Z,98978.16
2023-08-27T15:51:35.973Z,98977.41
2023-08-27T15:55:39.250Z,98971.09
2023-08-27T15:59:41.977Z,98960.06
2023-08-27T16:03:46.396Z,98972.94
2023-08-27T16:07:50.732Z,98968.91
2023-08-27T16:11:54.016Z,98962.41
2023-08-27T16:15:58.902Z,98960.59
2023-08-27T16:20:01.670Z,98951.94
2023-08-27T16:24:07.071Z,98947.47
2023-08-27T16:28:11.078Z,98955.25
2023-08-27T16:32:13.984Z,98956.50
2023-08-27T16:36:17.429Z,98952.38
2023-08-27T16:40:23.109Z,98942.94
2023-08-27T16:44:27.182Z,98942.00
2023-08-27T16:48:30.877Z,98947.06
2023-08-27T16:52:33.882Z,98948.53
2023-08-27T16:56:38.439Z,98949.22
2023-08-27T17:00:41.731Z,98947.00
2023-08-27T17:04:46.469Z,98955.31
2023-08-27T17:08:51.661Z,98946.03
2023-08-27T17:12:56.446Z,98947.94
2023-08-27T17:17:01.800Z,98930.09
2023-08-27T17:21:05.486Z,98929.91
2023-08-27T17:25:09.269Z,98934.06
2023-08-27T17:29:13.637Z,98925.31
2023-08-27T17:33:16.820Z,98922.59
2023-08-27T17:37:19.631Z,98921.94
2023-08-27T17:41:27.359Z,98929.31
2023-08-27T17:45:32.049Z,98937.31
2023-08-27T17:49:36.177Z,98919.50
2023-08-27T17:53:39.900Z,98930.16
2023-08-27T17:57:43.121Z,98933.00
2023-08-27T18:01:47.302Z,98928.34
2023-08-27T18:05:50.638Z,98916.09
2023-08-27T18:09:53.280Z,98924.50
2023-08-27T18:13:56.764Z,98941.59
2023-08-27T18:18:01.594Z,98953.88
2023-08-27T18:22:05.350Z,98951.25
2023-08-27T18:26:09.120Z,98955.75
2023-08-27T18:30:13.427Z,98948.22
2023-08-27T18:34:18.910Z,98947.78
2023-08-27T18:38:22.492Z,98939.66
2023-08-27T18:42:33.444Z,98944.09
2023-08-27T18:46:40.337Z,98917.50
2023-08-27T18:50:45.391Z,98927.50
2023-08-27T18:54:48.531Z,98927.63
2023-08-27T18:58:51.199Z,98920.34
2023-08-27T19:02:54.706Z,98926.47
2023-08-27T19:06:58.829Z,98931.13
2023-08-27T19:11:02.012Z,98935.00
2023-08-27T19:15:06.276Z,98934.09
2023-08-27T19:19:11.784Z,98930.22
2023-08-27T19:23:16.389Z,98932.47
2023-08-27T19:27:20.390Z,98928.47
2023-08-27T19:31:30.133Z,98913.34
2023-08-27T19:35:40.354Z,98890.41
2023-08-27T19:39:45.216Z,98890.81
2023-08-27T19:43:49.198Z,98886.44
2023-08-27T19:47:51.554Z,98884.81
2023-08-27T19:51:54.684Z,98890.06
2023-08-27T19:55:59.257Z,98888.16
2023-08-27T20:00:02.071Z,98890.53
2023-08-27T20:04:06.014Z,98894.97
2023-08-27T20:08:08.768Z,98875.41
2023-08-27T20:12:13.350Z,98865.97
2023-08-27T20:16:16.576Z,98862.94
2023-08-27T20:20:19.795Z,98855.72
2023-08-27T20:24:22.937Z,98854.25
2023-08-27T20:28:27.574Z,98834.88
2023-08-27T20:32:30.980Z,98830.53
2023-08-27T20:36:33.940Z,98831.38
2023-08-27T20:40:38.829Z,98824.72
2023-08-27T20:44:43.594Z,98818.94
2023-08-27T20:48:46.791Z,98826.84
2023-08-27T20:52:49.780Z,98840.25
2023-08-27T20:56:52.007Z,98847.34
2023-08-27T21:00:56.537Z,98846.44
2023-08-27T21:05:00.156Z,98859.66
2023-08-27T21:09:04.089Z,98854.09
2023-08-27T21:13:08.545Z,98859.91
2023-08-27T21:17:13.992Z,98843.38
2023-08-27T21:21:17.487Z,98852.84
2023-08-27T21:25:20.312Z,98852.47
2023-08-27T21:29:23.484Z,98845.91
2023-08-27T21:33:28.218Z,98849.78
2023-08-27T21:37:31.047Z,98845.34
2023-08-27T21:41:34.291Z,98842.16
2023-08-27T21:45:37.957Z,98844.06
2023-08-27T21:49:42.508Z,98840.75
2023-08-27T21:53:45.776Z,98839.28
2023-08-27T21:57:48.834Z,98839.09
2023-08-27T22:01:52.422Z,98845.78
2023-08-27T22:06:00.341Z,98847.94
2023-08-27T22:10:03.829Z,98857.84
2023-08-27T22:14:07.759Z,98862.19
2023-08-27T22:18:10.917Z,98865.53
2023-08-27T22:22:15.756Z,98875.53
2023-08-27T22:26:18.946Z,98872.53
2023-08-27T22:30:22.342Z,98881.16
2023-08-27T22:34:26.099Z,98895.66
2023-08-27T22:38:30.733Z,98889.69
2023-08-27T22:42:36.223Z,98895.97
